sensor_id;sensor_type;location;lat;lon;timestamp;P1;durP1;ratioP1;P2;durP2;ratioP2
20824;SDS011;10573;50.936;6.978;2023-05-20T00:00:48;2.92;;;1.25;;
20824;SDS011;10573;50.936;6.978;2023-05-20T00:03:14;3.33;;;1.43;;
20824;SDS011;10573;50.936;6.978;2023-05-20T00:05:44;1.63;;;1.20;;
20824;SDS011;10573;50.936;6.978;2023-05-20T00:08:09;1.65;;;1.23;;
20824;SDS011;10573;50.936;6.978;2023-05-20T00:10:35;2.93;;;1.40;;
20824;SDS011;10573;50.936;6.978;2023-05-20T00:13:00;1.77;;;1.20;;
20824;SDS011;10573;50.936;6.978;2023-05-20T00:15:26;2.85;;;1.52;;
20824;SDS011;10573;50.936;6.978;2023-05-20T00:17:52;2.90;;;1.40;;
20824;SDS011;10573;50.936;6.978;2023-05-20T00:20:19;3.73;;;1.30;;
20824;SDS011;10573;50.936;6.978;2023-05-20T00:22:44;2.87;;;1.30;;
20824;SDS011;10573;50.936;6.978;2023-05-20T00:25:10;3.78;;;1.38;;
20824;SDS011;10573;50.936;6.978;2023-05-20T00:27:38;4.03;;;1.40;;
20824;SDS011;10573;50.936;6.978;2023-05-20T00:30:04;1.50;;;1.20;;
20824;SDS011;10573;50.936;6.978;2023-05-20T00:32:30;1.73;;;1.33;;
20824;SDS011;10573;50.936;6.978;2023-05-20T00:34:56;2.37;;;1.50;;
20824;SDS011;10573;50.936;6.978;2023-05-20T00:37:23;6.00;;;1.57;;
20824;SDS011;10573;50.936;6.978;2023-05-20T00:39:48;4.27;;;1.53;;
20824;SDS011;10573;50.936;6.978;2023-05-20T00:44:45;2.10;;;1.20;;
20824;SDS011;10573;50.936;6.978;2023-05-20T00:47:11;3.70;;;1.30;;
20824;SDS011;10573;50.936;6.978;2023-05-20T00:49:36;2.67;;;1.40;;
20824;SDS011;10573;50.936;6.978;2023-05-20T00:52:02;2.47;;;1.20;;
20824;SDS011;10573;50.936;6.978;2023-05-20T00:54:28;3.88;;;1.50;;
20824;SDS011;10573;50.936;6.978;2023-05-20T00:56:53;2.37;;;1.40;;
20824;SDS011;10573;50.936;6.978;2023-05-20T00:59:19;2.73;;;1.63;;
20824;SDS011;10573;50.936;6.978;2023-05-20T01:01:45;2.28;;;1.40;;
20824;SDS011;10573;50.936;6.978;2023-05-20T01:04:10;3.10;;;1.60;;
20824;SDS011;10573;50.936;6.978;2023-05-20T01:06:36;2.40;;;1.13;;
20824;SDS011;10573;50.936;6.978;2023-05-20T01:09:04;2.70;;;1.50;;
20824;SDS011;10573;50.936;6.978;2023-05-20T01:11:37;2.30;;;1.33;;
20824;SDS011;10573;50.936;6.978;2023-05-20T01:14:11;2.92;;;1.25;;
20824;SDS011;10573;50.936;6.978;2023-05-20T01:16:40;2.27;;;1.47;;
20824;SDS011;10573;50.936;6.978;2023-05-20T01:19:17;4.10;;;1.40;;
20824;SDS011;10573;50.936;6.978;2023-05-20T01:21:59;3.40;;;1.50;;
20824;SDS011;10573;50.936;6.978;2023-05-20T01:24:29;3.72;;;1.65;;
20824;SDS011;10573;50.936;6.978;2023-05-20T01:26:55;2.83;;;1.30;;
20824;SDS011;10573;50.936;6.978;2023-05-20T01:29:22;2.77;;;1.50;;
20824;SDS011;10573;50.936;6.978;2023-05-20T01:31:52;2.40;;;1.20;;
20824;SDS011;10573;50.936;6.978;2023-05-20T01:34:20;1.75;;;1.10;;
20824;SDS011;10573;50.936;6.978;2023-05-20T01:36:46;1.77;;;1.27;;
20824;SDS011;10573;50.936;6.978;2023-05-20T01:39:12;5.93;;;1.50;;
20824;SDS011;10573;50.936;6.978;2023-05-20T01:41:38;2.65;;;1.20;;
20824;SDS011;10573;50.936;6.978;2023-05-20T01:44:05;1.55;;;1.20;;
20824;SDS011;10573;50.936;6.978;2023-05-20T01:46:31;2.92;;;1.67;;
20824;SDS011;10573;50.936;6.978;2023-05-20T01:48:58;3.42;;;1.27;;
20824;SDS011;10573;50.936;6.978;2023-05-20T01:51:24;2.67;;;1.50;;
20824;SDS011;10573;50.936;6.978;2023-05-20T01:53:49;2.17;;;1.23;;
20824;SDS011;10573;50.936;6.978;2023-05-20T01:56:15;3.78;;;1.58;;
20824;SDS011;10573;50.936;6.978;2023-05-20T01:58:40;3.00;;;1.40;;
20824;SDS011;10573;50.936;6.978;2023-05-20T02:01:05;1.58;;;1.20;;
20824;SDS011;10573;50.936;6.978;2023-05-20T02:03:31;2.20;;;1.70;;
20824;SDS011;10573;50.936;6.978;2023-05-20T02:05:56;2.35;;;1.23;;
20824;SDS011;10573;50.936;6.978;2023-05-20T02:08:22;5.20;;;1.50;;
20824;SDS011;10573;50.936;6.978;2023-05-20T02:10:47;2.80;;;1.60;;
20824;SDS011;10573;50.936;6.978;2023-05-20T02:13:13;5.60;;;1.60;;
20824;SDS011;10573;50.936;6.978;2023-05-20T02:15:41;2.00;;;1.30;;
20824;SDS011;10573;50.936;6.978;2023-05-20T02:18:07;3.53;;;1.40;;
20824;SDS011;10573;50.936;6.978;2023-05-20T02:20:35;3.60;;;1.40;;
20824;SDS011;10573;50.936;6.978;2023-05-20T02:23:01;2.72;;;1.60;;
20824;SDS011;10573;50.936;6.978;2023-05-20T02:25:29;5.03;;;1.40;;
20824;SDS011;10573;50.936;6.978;2023-05-20T02:27:55;1.80;;;1.35;;
20824;SDS011;10573;50.936;6.978;2023-05-20T02:30:21;2.30;;;1.40;;
20824;SDS011;10573;50.936;6.978;2023-05-20T02:32:46;3.00;;;1.40;;
20824;SDS011;10573;50.936;6.978;2023-05-20T02:35:12;2.60;;;1.50;;
20824;SDS011;10573;50.936;6.978;2023-05-20T02:37:37;3.23;;;1.50;;
20824;SDS011;10573;50.936;6.978;2023-05-20T02:40:03;2.70;;;1.33;;
20824;SDS011;10573;50.936;6.978;2023-05-20T02:42:29;2.60;;;1.25;;
20824;SDS011;10573;50.936;6.978;2023-05-20T02:44:54;3.15;;;1.33;;
20824;SDS011;10573;50.936;6.978;2023-05-20T02:47:22;4.85;;;1.60;;
20824;SDS011;10573;50.936;6.978;2023-05-20T02:49:49;3.88;;;1.52;;
20824;SDS011;10573;50.936;6.978;2023-05-20T02:52:14;2.70;;;1.50;;
20824;SDS011;10573;50.936;6.978;2023-05-20T02:54:40;5.03;;;1.47;;
20824;SDS011;10573;50.936;6.978;2023-05-20T02:57:05;3.35;;;1.45;;
20824;SDS011;10573;50.936;6.978;2023-05-20T02:59:31;2.23;;;1.50;;
20824;SDS011;10573;50.936;6.978;2023-05-20T03:01:56;3.30;;;1.30;;
20824;SDS011;10573;50.936;6.978;2023-05-20T03:04:22;3.53;;;1.50;;
20824;SDS011;10573;50.936;6.978;2023-05-20T03:06:49;2.57;;;1.57;;
20824;SDS011;10573;50.936;6.978;2023-05-20T03:09:16;2.85;;;1.52;;
20824;SDS011;10573;50.936;6.978;2023-05-20T03:11:43;3.70;;;1.70;;
20824;SDS011;10573;50.936;6.978;2023-05-20T03:14:09;2.70;;;1.55;;
20824;SDS011;10573;50.936;6.978;2023-05-20T03:16:34;2.63;;;1.60;;
20824;SDS011;10573;50.936;6.978;2023-05-20T03:19:00;2.80;;;1.52;;
20824;SDS011;10573;50.936;6.978;2023-05-20T03:21:26;5.35;;;1.90;;
20824;SDS011;10573;50.936;6.978;2023-05-20T03:23:52;4.22;;;1.60;;
20824;SDS011;10573;50.936;6.978;2023-05-20T03:26:17;3.17;;;1.53;;
20824;SDS011;10573;50.936;6.978;2023-05-20T03:28:43;2.38;;;1.52;;
20824;SDS011;10573;50.936;6.978;2023-05-20T03:31:08;4.47;;;2.10;;
20824;SDS011;10573;50.936;6.978;2023-05-20T03:33:34;3.17;;;1.70;;
20824;SDS011;10573;50.936;6.978;2023-05-20T03:35:59;3.33;;;1.97;;
20824;SDS011;10573;50.936;6.978;2023-05-20T03:38:25;2.33;;;1.80;;
20824;SDS011;10573;50.936;6.978;2023-05-20T03:40:51;2.88;;;1.70;;
20824;SDS011;10573;50.936;6.978;2023-05-20T03:43:16;2.22;;;1.73;;
20824;SDS011;10573;50.936;6.978;2023-05-20T03:45:42;4.20;;;2.03;;
20824;SDS011;10573;50.936;6.978;2023-05-20T03:48:07;3.97;;;2.00;;
20824;SDS011;10573;50.936;6.978;2023-05-20T03:50:33;4.50;;;2.03;;
20824;SDS011;10573;50.936;6.978;2023-05-20T03:52:58;3.67;;;1.90;;
20824;SDS011;10573;50.936;6.978;2023-05-20T03:55:24;7.47;;;2.23;;
20824;SDS011;10573;50.936;6.978;2023-05-20T03:57:49;4.32;;;1.90;;
20824;SDS011;10573;50.936;6.978;2023-05-20T04:00:15;4.17;;;2.17;;
20824;SDS011;10573;50.936;6.978;2023-05-20T04:02:41;3.72;;;2.10;;
20824;SDS011;10573;50.936;6.978;2023-05-20T04:05:07;3.70;;;1.77;;
20824;SDS011;10573;50.936;6.978;2023-05-20T04:07:34;5.70;;;2.30;;
20824;SDS011;10573;50.936;6.978;2023-05-20T04:09:59;4.50;;;2.27;;
20824;SDS011;10573;50.936;6.978;2023-05-20T04:12:25;3.10;;;1.85;;
20824;SDS011;10573;50.936;6.978;2023-05-20T04:14:56;5.10;;;2.00;;
20824;SDS011;10573;50.936;6.978;2023-05-20T04:17:27;4.05;;;1.83;;
20824;SDS011;10573;50.936;6.978;2023-05-20T04:19:56;3.58;;;2.10;;
20824;SDS011;10573;50.936;6.978;2023-05-20T04:22:24;3.80;;;2.08;;
20824;SDS011;10573;50.936;6.978;2023-05-20T04:24:50;3.22;;;2.08;;
20824;SDS011;10573;50.936;6.978;2023-05-20T04:27:15;3.50;;;2.03;;
20824;SDS011;10573;50.936;6.978;2023-05-20T04:29:41;2.97;;;2.22;;
20824;SDS011;10573;50.936;6.978;2023-05-20T04:32:10;3.85;;;1.83;;
20824;SDS011;10573;50.936;6.978;2023-05-20T04:34:41;3.10;;;2.00;;
20824;SDS011;10573;50.936;6.978;2023-05-20T04:37:06;3.30;;;1.90;;
20824;SDS011;10573;50.936;6.978;2023-05-20T04:39:33;2.50;;;1.90;;
20824;SDS011;10573;50.936;6.978;2023-05-20T04:41:59;5.00;;;2.00;;
20824;SDS011;10573;50.936;6.978;2023-05-20T04:44:24;4.57;;;1.80;;
20824;SDS011;10573;50.936;6.978;2023-05-20T04:46:50;3.67;;;2.33;;
20824;SDS011;10573;50.936;6.978;2023-05-20T04:49:16;3.57;;;2.30;;
20824;SDS011;10573;50.936;6.978;2023-05-20T04:51:42;3.47;;;1.90;;
20824;SDS011;10573;50.936;6.978;2023-05-20T04:54:07;2.70;;;2.03;;
20824;SDS011;10573;50.936;6.978;2023-05-20T04:56:33;2.95;;;2.28;;
20824;SDS011;10573;50.936;6.978;2023-05-20T04:58:58;3.20;;;2.07;;
20824;SDS011;10573;50.936;6.978;2023-05-20T05:01:24;3.08;;;2.25;;
20824;SDS011;10573;50.936;6.978;2023-05-20T05:03:49;6.17;;;2.10;;
20824;SDS011;10573;50.936;6.978;2023-05-20T05:06:15;4.68;;;2.08;;
20824;SDS011;10573;50.936;6.978;2023-05-20T05:08:40;2.73;;;2.00;;
20824;SDS011;10573;50.936;6.978;2023-05-20T05:11:06;2.92;;;2.20;;
20824;SDS011;10573;50.936;6.978;2023-05-20T05:13:31;2.90;;;2.00;;
20824;SDS011;10573;50.936;6.978;2023-05-20T05:15:57;12.37;;;2.73;;
20824;SDS011;10573;50.936;6.978;2023-05-20T05:18:24;3.58;;;2.08;;
20824;SDS011;10573;50.936;6.978;2023-05-20T05:20:49;3.00;;;2.30;;
20824;SDS011;10573;50.936;6.978;2023-05-20T05:23:22;3.65;;;2.33;;
20824;SDS011;10573;50.936;6.978;2023-05-20T05:25:50;4.10;;;2.40;;
20824;SDS011;10573;50.936;6.978;2023-05-20T05:28:16;5.10;;;2.47;;
20824;SDS011;10573;50.936;6.978;2023-05-20T05:30:41;5.77;;;2.50;;
20824;SDS011;10573;50.936;6.978;2023-05-20T05:33:07;4.77;;;2.20;;
20824;SDS011;10573;50.936;6.978;2023-05-20T05:35:32;3.80;;;2.30;;
20824;SDS011;10573;50.936;6.978;2023-05-20T05:37:58;4.82;;;2.28;;
20824;SDS011;10573;50.936;6.978;2023-05-20T05:40:23;4.30;;;2.30;;
20824;SDS011;10573;50.936;6.978;2023-05-20T05:42:48;4.63;;;2.47;;
20824;SDS011;10573;50.936;6.978;2023-05-20T05:45:14;3.93;;;2.40;;
20824;SDS011;10573;50.936;6.978;2023-05-20T05:47:39;3.60;;;2.35;;
20824;SDS011;10573;50.936;6.978;2023-05-20T05:50:05;3.60;;;2.50;;
20824;SDS011;10573;50.936;6.978;2023-05-20T05:52:30;3.45;;;2.40;;
20824;SDS011;10573;50.936;6.978;2023-05-20T05:54:56;3.10;;;2.10;;
20824;SDS011;10573;50.936;6.978;2023-05-20T05:57:21;5.00;;;2.38;;
20824;SDS011;10573;50.936;6.978;2023-05-20T05:59:47;2.93;;;2.43;;
20824;SDS011;10573;50.936;6.978;2023-05-20T06:02:12;4.73;;;2.40;;
20824;SDS011;10573;50.936;6.978;2023-05-20T06:04:38;3.93;;;2.40;;
20824;SDS011;10573;50.936;6.978;2023-05-20T06:07:04;6.50;;;2.43;;
20824;SDS011;10573;50.936;6.978;2023-05-20T06:09:29;3.88;;;2.40;;
20824;SDS011;10573;50.936;6.978;2023-05-20T06:11:55;5.37;;;2.27;;
20824;SDS011;10573;50.936;6.978;2023-05-20T06:14:20;3.47;;;2.17;;
20824;SDS011;10573;50.936;6.978;2023-05-20T06:16:46;4.60;;;2.37;;
20824;SDS011;10573;50.936;6.978;2023-05-20T06:19:11;2.35;;;1.88;;
20824;SDS011;10573;50.936;6.978;2023-05-20T06:21:37;3.30;;;2.13;;
20824;SDS011;10573;50.936;6.978;2023-05-20T06:24:03;4.57;;;2.40;;
20824;SDS011;10573;50.936;6.978;2023-05-20T06:26:28;4.05;;;2.28;;
20824;SDS011;10573;50.936;6.978;2023-05-20T06:28:54;3.70;;;2.13;;
20824;SDS011;10573;50.936;6.978;2023-05-20T06:31:19;4.35;;;2.38;;
20824;SDS011;10573;50.936;6.978;2023-05-20T06:33:45;3.73;;;2.47;;
20824;SDS011;10573;50.936;6.978;2023-05-20T06:36:10;3.20;;;2.10;;
20824;SDS011;10573;50.936;6.978;2023-05-20T06:38:36;3.57;;;2.30;;
20824;SDS011;10573;50.936;6.978;2023-05-20T06:41:02;4.82;;;2.10;;
20824;SDS011;10573;50.936;6.978;2023-05-20T06:43:27;4.32;;;2.30;;
20824;SDS011;10573;50.936;6.978;2023-05-20T06:45:53;5.17;;;2.30;;
20824;SDS011;10573;50.936;6.978;2023-05-20T06:48:18;4.13;;;2.30;;
20824;SDS011;10573;50.936;6.978;2023-05-20T06:50:44;3.30;;;2.13;;
20824;SDS011;10573;50.936;6.978;2023-05-20T06:53:09;3.43;;;2.40;;
20824;SDS011;10573;50.936;6.978;2023-05-20T06:55:36;3.90;;;2.30;;
20824;SDS011;10573;50.936;6.978;2023-05-20T06:58:01;3.72;;;2.40;;
20824;SDS011;10573;50.936;6.978;2023-05-20T07:00:27;4.47;;;2.13;;
20824;SDS011;10573;50.936;6.978;2023-05-20T07:02:52;3.00;;;2.10;;
20824;SDS011;10573;50.936;6.978;2023-05-20T07:05:18;2.83;;;2.30;;
20824;SDS011;10573;50.936;6.978;2023-05-20T07:07:43;3.10;;;2.30;;
20824;SDS011;10573;50.936;6.978;2023-05-20T07:10:09;2.80;;;2.20;;
20824;SDS011;10573;50.936;6.978;2023-05-20T07:12:34;3.08;;;2.28;;
20824;SDS011;10573;50.936;6.978;2023-05-20T07:15:00;6.50;;;2.40;;
20824;SDS011;10573;50.936;6.978;2023-05-20T07:17:26;2.72;;;2.00;;
20824;SDS011;10573;50.936;6.978;2023-05-20T07:19:53;4.47;;;2.47;;
20824;SDS011;10573;50.936;6.978;2023-05-20T07:22:20;2.88;;;2.20;;
20824;SDS011;10573;50.936;6.978;2023-05-20T07:24:45;5.20;;;2.23;;
20824;SDS011;10573;50.936;6.978;2023-05-20T07:27:11;4.03;;;2.00;;
20824;SDS011;10573;50.936;6.978;2023-05-20T07:29:37;4.87;;;2.33;;
20824;SDS011;10573;50.936;6.978;2023-05-20T07:32:02;2.63;;;2.30;;
20824;SDS011;10573;50.936;6.978;2023-05-20T07:34:29;3.20;;;2.30;;
20824;SDS011;10573;50.936;6.978;2023-05-20T07:36:55;5.75;;;2.20;;
20824;SDS011;10573;50.936;6.978;2023-05-20T07:39:21;4.28;;;1.95;;
20824;SDS011;10573;50.936;6.978;2023-05-20T07:41:47;3.75;;;2.30;;
20824;SDS011;10573;50.936;6.978;2023-05-20T07:44:13;3.50;;;2.50;;
20824;SDS011;10573;50.936;6.978;2023-05-20T07:46:39;3.63;;;2.23;;
20824;SDS011;10573;50.936;6.978;2023-05-20T07:49:05;4.55;;;2.20;;
20824;SDS011;10573;50.936;6.978;2023-05-20T07:51:31;4.03;;;2.37;;
20824;SDS011;10573;50.936;6.978;2023-05-20T07:53:57;4.03;;;2.00;;
20824;SDS011;10573;50.936;6.978;2023-05-20T07:56:23;4.78;;;2.38;;
20824;SDS011;10573;50.936;6.978;2023-05-20T07:58:52;3.57;;;2.30;;
20824;SDS011;10573;50.936;6.978;2023-05-20T08:01:19;3.10;;;2.20;;
20824;SDS011;10573;50.936;6.978;2023-05-20T08:03:45;3.15;;;2.28;;
20824;SDS011;10573;50.936;6.978;2023-05-20T08:06:10;3.23;;;1.97;;
20824;SDS011;10573;50.936;6.978;2023-05-20T08:08:36;2.80;;;2.00;;
20824;SDS011;10573;50.936;6.978;2023-05-20T08:11:01;5.00;;;2.27;;
20824;SDS011;10573;50.936;6.978;2023-05-20T08:13:28;5.18;;;2.67;;
20824;SDS011;10573;50.936;6.978;2023-05-20T08:15:53;4.20;;;2.08;;
20824;SDS011;10573;50.936;6.978;2023-05-20T08:18:19;3.22;;;1.98;;
20824;SDS011;10573;50.936;6.978;2023-05-20T08:20:45;2.90;;;2.20;;
20824;SDS011;10573;50.936;6.978;2023-05-20T08:23:11;2.67;;;2.13;;
20824;SDS011;10573;50.936;6.978;2023-05-20T08:25:36;3.70;;;2.10;;
20824;SDS011;10573;50.936;6.978;2023-05-20T08:28:02;5.47;;;2.47;;
20824;SDS011;10573;50.936;6.978;2023-05-20T08:30:30;4.18;;;2.33;;
20824;SDS011;10573;50.936;6.978;2023-05-20T08:32:56;4.28;;;2.30;;
20824;SDS011;10573;50.936;6.978;2023-05-20T08:35:22;5.07;;;2.40;;
20824;SDS011;10573;50.936;6.978;2023-05-20T08:37:48;4.75;;;3.42;;
20824;SDS011;10573;50.936;6.978;2023-05-20T08:40:14;2.30;;;1.87;;
20824;SDS011;10573;50.936;6.978;2023-05-20T08:42:40;2.30;;;2.10;;
20824;SDS011;10573;50.936;6.978;2023-05-20T08:45:09;4.20;;;2.40;;
20824;SDS011;10573;50.936;6.978;2023-05-20T08:47:36;2.70;;;2.10;;
20824;SDS011;10573;50.936;6.978;2023-05-20T08:50:07;3.83;;;2.35;;
20824;SDS011;10573;50.936;6.978;2023-05-20T08:52:34;2.53;;;1.98;;
20824;SDS011;10573;50.936;6.978;2023-05-20T08:55:02;5.38;;;2.25;;
20824;SDS011;10573;50.936;6.978;2023-05-20T08:57:32;4.28;;;2.33;;
20824;SDS011;10573;50.936;6.978;2023-05-20T08:59:58;3.20;;;2.03;;
20824;SDS011;10573;50.936;6.978;2023-05-20T09:02:24;2.90;;;2.30;;
20824;SDS011;10573;50.936;6.978;2023-05-20T09:04:50;3.17;;;2.20;;
20824;SDS011;10573;50.936;6.978;2023-05-20T09:07:26;2.80;;;2.40;;
20824;SDS011;10573;50.936;6.978;2023-05-20T09:09:52;3.80;;;2.10;;
20824;SDS011;10573;50.936;6.978;2023-05-20T09:12:19;3.27;;;2.27;;
20824;SDS011;10573;50.936;6.978;2023-05-20T09:14:45;5.28;;;2.35;;
20824;SDS011;10573;50.936;6.978;2023-05-20T09:17:13;7.17;;;3.57;;
20824;SDS011;10573;50.936;6.978;2023-05-20T09:19:39;3.05;;;2.30;;
20824;SDS011;10573;50.936;6.978;2023-05-20T09:22:05;4.57;;;2.22;;
20824;SDS011;10573;50.936;6.978;2023-05-20T09:24:31;3.85;;;2.30;;
20824;SDS011;10573;50.936;6.978;2023-05-20T09:26:59;2.55;;;2.22;;
20824;SDS011;10573;50.936;6.978;2023-05-20T09:29:25;3.28;;;2.22;;
20824;SDS011;10573;50.936;6.978;2023-05-20T09:31:50;3.63;;;2.30;;
20824;SDS011;10573;50.936;6.978;2023-05-20T09:34:18;5.60;;;2.35;;
20824;SDS011;10573;50.936;6.978;2023-05-20T09:36:45;4.30;;;2.55;;
20824;SDS011;10573;50.936;6.978;2023-05-20T09:39:15;3.25;;;2.58;;
20824;SDS011;10573;50.936;6.978;2023-05-20T09:44:16;4.45;;;2.00;;
20824;SDS011;10573;50.936;6.978;2023-05-20T09:46:42;4.22;;;2.08;;
20824;SDS011;10573;50.936;6.978;2023-05-20T09:49:10;4.82;;;2.28;;
20824;SDS011;10573;50.936;6.978;2023-05-20T09:51:37;4.10;;;2.05;;
20824;SDS011;10573;50.936;6.978;2023-05-20T09:54:04;4.95;;;2.22;;
20824;SDS011;10573;50.936;6.978;2023-05-20T09:56:33;3.00;;;2.10;;
20824;SDS011;10573;50.936;6.978;2023-05-20T09:58:59;3.70;;;2.00;;
20824;SDS011;10573;50.936;6.978;2023-05-20T10:01:26;3.20;;;2.05;;
20824;SDS011;10573;50.936;6.978;2023-05-20T10:03:51;2.97;;;1.97;;
20824;SDS011;10573;50.936;6.978;2023-05-20T10:06:25;3.60;;;2.10;;
20824;SDS011;10573;50.936;6.978;2023-05-20T10:20:43;3.25;;;2.10;;
20824;SDS011;10573;50.936;6.978;2023-05-20T10:23:18;2.45;;;1.95;;
20824;SDS011;10573;50.936;6.978;2023-05-20T10:25:49;2.95;;;2.10;;
20824;SDS011;10573;50.936;6.978;2023-05-20T10:28:23;3.05;;;2.08;;
20824;SDS011;10573;50.936;6.978;2023-05-20T10:30:53;2.60;;;2.00;;
20824;SDS011;10573;50.936;6.978;2023-05-20T10:33:19;2.40;;;2.10;;
20824;SDS011;10573;50.936;6.978;2023-05-20T10:35:51;5.57;;;2.37;;
20824;SDS011;10573;50.936;6.978;2023-05-20T10:38:17;2.67;;;2.20;;
20824;SDS011;10573;50.936;6.978;2023-05-20T10:40:44;3.50;;;2.10;;
20824;SDS011;10573;50.936;6.978;2023-05-20T10:43:13;3.10;;;2.00;;
20824;SDS011;10573;50.936;6.978;2023-05-20T10:45:47;2.63;;;2.30;;
20824;SDS011;10573;50.936;6.978;2023-05-20T10:48:22;5.35;;;2.35;;
20824;SDS011;10573;50.936;6.978;2023-05-20T10:50:52;2.42;;;2.10;;
20824;SDS011;10573;50.936;6.978;2023-05-20T10:53:20;5.82;;;2.25;;
20824;SDS011;10573;50.936;6.978;2023-05-20T10:55:48;3.73;;;2.30;;
20824;SDS011;10573;50.936;6.978;2023-05-20T10:58:16;3.35;;;2.50;;
20824;SDS011;10573;50.936;6.978;2023-05-20T11:00:43;4.43;;;2.55;;
20824;SDS011;10573;50.936;6.978;2023-05-20T11:03:09;5.23;;;2.33;;
20824;SDS011;10573;50.936;6.978;2023-05-20T11:05:40;3.78;;;2.45;;
20824;SDS011;10573;50.936;6.978;2023-05-20T11:08:07;3.80;;;2.42;;
20824;SDS011;10573;50.936;6.978;2023-05-20T11:10:36;4.10;;;2.33;;
20824;SDS011;10573;50.936;6.978;2023-05-20T11:13:02;3.60;;;2.40;;
20824;SDS011;10573;50.936;6.978;2023-05-20T11:15:33;2.60;;;2.40;;
20824;SDS011;10573;50.936;6.978;2023-05-20T11:18:02;4.53;;;3.15;;
20824;SDS011;10573;50.936;6.978;2023-05-20T11:20:28;6.30;;;3.50;;
20824;SDS011;10573;50.936;6.978;2023-05-20T11:22:55;2.90;;;2.47;;
20824;SDS011;10573;50.936;6.978;2023-05-20T11:25:21;3.58;;;2.58;;
20824;SDS011;10573;50.936;6.978;2023-05-20T11:27:50;3.35;;;2.35;;
20824;SDS011;10573;50.936;6.978;2023-05-20T11:30:16;4.27;;;2.70;;
20824;SDS011;10573;50.936;6.978;2023-05-20T11:33:01;5.22;;;2.55;;
20824;SDS011;10573;50.936;6.978;2023-05-20T11:35:29;3.55;;;2.80;;
20824;SDS011;10573;50.936;6.978;2023-05-20T11:38:03;3.33;;;2.80;;
20824;SDS011;10573;50.936;6.978;2023-05-20T11:40:35;3.50;;;2.83;;
20824;SDS011;10573;50.936;6.978;2023-05-20T11:43:00;3.30;;;2.50;;
20824;SDS011;10573;50.936;6.978;2023-05-20T11:45:37;2.92;;;2.60;;
20824;SDS011;10573;50.936;6.978;2023-05-20T11:48:04;5.40;;;2.55;;
20824;SDS011;10573;50.936;6.978;2023-05-20T11:50:35;3.58;;;2.78;;
20824;SDS011;10573;50.936;6.978;2023-05-20T11:53:03;4.25;;;2.60;;
20824;SDS011;10573;50.936;6.978;2023-05-20T11:55:31;5.43;;;2.80;;
20824;SDS011;10573;50.936;6.978;2023-05-20T11:58:00;4.75;;;2.50;;
20824;SDS011;10573;50.936;6.978;2023-05-20T12:00:27;3.65;;;2.83;;
20824;SDS011;10573;50.936;6.978;2023-05-20T12:02:52;4.57;;;3.00;;
20824;SDS011;10573;50.936;6.978;2023-05-20T12:05:18;3.70;;;2.78;;
20824;SDS011;10573;50.936;6.978;2023-05-20T12:07:44;4.25;;;3.10;;
20824;SDS011;10573;50.936;6.978;2023-05-20T12:10:10;5.50;;;3.20;;
20824;SDS011;10573;50.936;6.978;2023-05-20T12:12:36;4.10;;;2.75;;
20824;SDS011;10573;50.936;6.978;2023-05-20T12:15:04;4.30;;;3.00;;
20824;SDS011;10573;50.936;6.978;2023-05-20T12:17:42;4.80;;;2.80;;
20824;SDS011;10573;50.936;6.978;2023-05-20T12:20:12;3.10;;;2.80;;
20824;SDS011;10573;50.936;6.978;2023-05-20T12:22:39;5.90;;;3.00;;
20824;SDS011;10573;50.936;6.978;2023-05-20T12:25:05;4.13;;;3.13;;
20824;SDS011;10573;50.936;6.978;2023-05-20T12:27:31;4.15;;;2.83;;
20824;SDS011;10573;50.936;6.978;2023-05-20T12:29:57;5.03;;;3.20;;
20824;SDS011;10573;50.936;6.978;2023-05-20T12:32:23;6.40;;;2.90;;
20824;SDS011;10573;50.936;6.978;2023-05-20T12:34:48;4.97;;;3.20;;
20824;SDS011;10573;50.936;6.978;2023-05-20T12:37:14;5.45;;;3.28;;
20824;SDS011;10573;50.936;6.978;2023-05-20T12:39:39;3.10;;;2.80;;
20824;SDS011;10573;50.936;6.978;2023-05-20T12:42:05;3.63;;;2.83;;
20824;SDS011;10573;50.936;6.978;2023-05-20T12:44:30;3.17;;;2.88;;
20824;SDS011;10573;50.936;6.978;2023-05-20T12:46:55;4.83;;;3.13;;
20824;SDS011;10573;50.936;6.978;2023-05-20T12:49:21;4.80;;;3.03;;
20824;SDS011;10573;50.936;6.978;2023-05-20T12:51:47;6.78;;;3.00;;
20824;SDS011;10573;50.936;6.978;2023-05-20T12:54:12;3.97;;;3.10;;
20824;SDS011;10573;50.936;6.978;2023-05-20T12:56:37;3.67;;;2.90;;
20824;SDS011;10573;50.936;6.978;2023-05-20T12:59:04;3.73;;;2.90;;
20824;SDS011;10573;50.936;6.978;2023-05-20T13:01:30;5.50;;;2.80;;
20824;SDS011;10573;50.936;6.978;2023-05-20T13:03:55;4.30;;;2.97;;
20824;SDS011;10573;50.936;6.978;2023-05-20T13:06:21;3.50;;;3.00;;
20824;SDS011;10573;50.936;6.978;2023-05-20T13:08:46;5.78;;;3.03;;
20824;SDS011;10573;50.936;6.978;2023-05-20T13:11:12;3.63;;;2.60;;
20824;SDS011;10573;50.936;6.978;2023-05-20T13:13:37;2.97;;;2.63;;
20824;SDS011;10573;50.936;6.978;2023-05-20T13:16:03;3.70;;;2.63;;
20824;SDS011;10573;50.936;6.978;2023-05-20T13:18:28;3.50;;;2.73;;
20824;SDS011;10573;50.936;6.978;2023-05-20T13:20:54;2.78;;;2.30;;
20824;SDS011;10573;50.936;6.978;2023-05-20T13:23:19;4.80;;;2.50;;
20824;SDS011;10573;50.936;6.978;2023-05-20T13:25:45;4.17;;;2.90;;
20824;SDS011;10573;50.936;6.978;2023-05-20T13:28:10;4.60;;;2.80;;
20824;SDS011;10573;50.936;6.978;2023-05-20T13:30:40;3.78;;;2.88;;
20824;SDS011;10573;50.936;6.978;2023-05-20T13:33:06;3.00;;;2.70;;
20824;SDS011;10573;50.936;6.978;2023-05-20T13:35:32;3.28;;;2.67;;
20824;SDS011;10573;50.936;6.978;2023-05-20T13:37:57;3.42;;;2.83;;
20824;SDS011;10573;50.936;6.978;2023-05-20T13:40:23;5.00;;;2.80;;
20824;SDS011;10573;50.936;6.978;2023-05-20T13:42:49;3.43;;;2.60;;
20824;SDS011;10573;50.936;6.978;2023-05-20T13:45:14;3.85;;;2.83;;
20824;SDS011;10573;50.936;6.978;2023-05-20T13:47:40;4.07;;;3.05;;
20824;SDS011;10573;50.936;6.978;2023-05-20T13:50:05;3.50;;;2.83;;
20824;SDS011;10573;50.936;6.978;2023-05-20T13:52:31;4.22;;;2.92;;
20824;SDS011;10573;50.936;6.978;2023-05-20T13:54:57;4.63;;;3.00;;
20824;SDS011;10573;50.936;6.978;2023-05-20T13:57:22;3.47;;;3.00;;
20824;SDS011;10573;50.936;6.978;2023-05-20T13:59:47;3.57;;;3.03;;
20824;SDS011;10573;50.936;6.978;2023-05-20T14:02:13;4.10;;;3.00;;
20824;SDS011;10573;50.936;6.978;2023-05-20T14:04:38;3.43;;;3.00;;
20824;SDS011;10573;50.936;6.978;2023-05-20T14:07:05;3.27;;;2.67;;
20824;SDS011;10573;50.936;6.978;2023-05-20T14:09:30;4.03;;;2.88;;
20824;SDS011;10573;50.936;6.978;2023-05-20T14:11:56;3.43;;;2.87;;
20824;SDS011;10573;50.936;6.978;2023-05-20T14:14:21;4.38;;;2.90;;
20824;SDS011;10573;50.936;6.978;2023-05-20T14:16:47;3.23;;;2.70;;
20824;SDS011;10573;50.936;6.978;2023-05-20T14:19:12;7.17;;;3.13;;
20824;SDS011;10573;50.936;6.978;2023-05-20T14:21:38;4.03;;;3.08;;
20824;SDS011;10573;50.936;6.978;2023-05-20T14:24:03;8.00;;;2.90;;
20824;SDS011;10573;50.936;6.978;2023-05-20T14:26:29;3.15;;;2.85;;
20824;SDS011;10573;50.936;6.978;2023-05-20T14:28:54;4.73;;;2.77;;
20824;SDS011;10573;50.936;6.978;2023-05-20T14:31:20;5.77;;;2.77;;
20824;SDS011;10573;50.936;6.978;2023-05-20T14:33:45;5.20;;;2.70;;
20824;SDS011;10573;50.936;6.978;2023-05-20T14:36:11;3.20;;;2.90;;
20824;SDS011;10573;50.936;6.978;2023-05-20T14:38:36;3.83;;;2.80;;
20824;SDS011;10573;50.936;6.978;2023-05-20T14:41:02;3.25;;;2.88;;
20824;SDS011;10573;50.936;6.978;2023-05-20T14:43:27;4.13;;;2.70;;
20824;SDS011;10573;50.936;6.978;2023-05-20T14:45:53;3.15;;;2.55;;
20824;SDS011;10573;50.936;6.978;2023-05-20T14:48:19;4.30;;;2.70;;
20824;SDS011;10573;50.936;6.978;2023-05-20T14:50:47;5.37;;;2.60;;
20824;SDS011;10573;50.936;6.978;2023-05-20T14:53:12;5.18;;;3.00;;
20824;SDS011;10573;50.936;6.978;2023-05-20T14:55:38;3.93;;;3.20;;
20824;SDS011;10573;50.936;6.978;2023-05-20T14:58:03;2.92;;;2.65;;
20824;SDS011;10573;50.936;6.978;2023-05-20T15:00:29;3.50;;;2.87;;